Kamikawa Maru — JG5687 — position and weather

sailwx.info

Track history (hours):
 
Tides and Currents Weather Stations Pressure Air Temp Water Temp Dewpoint Dewpoint Depression Visibility Wind Speed Wind Dir Waves Ship Positions

Kamikawa Maru

Last reported at 2014-Jul-22 20:23 UTC. Time now 2014-Jul-23 07:48 UTC.
Position N 36°45' E 141°08'.

Length 162 m; draft 6.8 m.

Type: Cargo ship. MMSI: 431101012.

Date/timePositionNaut miles runAvg speedWind from/ knotsBaromVisibWave heightAir tempDewpointWater temp
2014-Jul-22 20:23N 36°45' E 141°08'1618.9
2014-Jul-22 19:33N 36°29' E 141°05'2019.2
2014-Jul-22 18:30N 36°09' E 141°03'1818.8
2014-Jul-22 17:33N 35°52' E 140°59'1918.6
2014-Jul-22 16:34N 35°34' E 140°51'1919.4
2014-Jul-22 15:34N 35°18' E 140°39'1919.1
2014-Jul-22 14:34N 35°05' E 140°22'2221.7
2014-Jul-22 13:33N 34°54' E 139°59'1515.3
2014-Jul-22 12:34N 35°03' E 139°44'1515.1
2014-Jul-22 11:33N 35°18' E 139°44'1211.8
2014-Jul-22 10:33N 35°29' E 139°50'10 9.4
2014-Jul-22 09:29N 35°38' E 139°46'0 0.0
2014-Jul-22 08:29N 35°38' E 139°46'0 0.0
2014-Jul-22 07:29N 35°38' E 139°46'0 0.1
2014-Jul-22 06:32N 35°38' E 139°46'0 0.0
2014-Jul-22 05:29N 35°38' E 139°46'0 0.0
2014-Jul-22 04:32N 35°38' E 139°46'0 0.0
2014-Jul-22 03:32N 35°38' E 139°46'0 0.0
2014-Jul-22 02:29N 35°38' E 139°46'0 0.0
2014-Jul-22 01:29N 35°38' E 139°46'0 0.0
2014-Jul-22 00:32N 35°38' E 139°46'0 0.1
2014-Jul-21 23:33N 35°38' E 139°46'1110.5
2014-Jul-21 22:33N 35°28' E 139°51'1312.5
2014-Jul-21 21:33N 35°17' E 139°46'1514.6
2014-Jul-21 20:34N 35°03' E 139°42'518.7
2014-Jul-21 20:18N 34°60' E 139°37'1418.5
2014-Jul-21 19:34N 34°51' E 139°23'4519.5
2014-Jul-21 17:14N 34°30' E 138°35'8 0.3
2014-Jul-20 10:04N 34°30' E 138°25'5916.7
2014-Jul-20 06:33N 34°58' E 139°28'1818.1
2014-Jul-20 05:33N 35°10' E 139°45'1313.3
2014-Jul-20 04:33N 35°23' E 139°42'1413.9
2014-Jul-20 03:33N 35°36' E 139°46'2 1.5
2014-Jul-20 02:31N 35°38' E 139°46'0 0.0
2014-Jul-20 01:31N 35°38' E 139°46'0 0.0
2014-Jul-20 00:13N 35°38' E 139°46'0 0.0
2014-Jul-19 23:31N 35°38' E 139°46'0 0.1
2014-Jul-19 22:33N 35°38' E 139°46'1111.2
2014-Jul-19 21:33N 35°27' E 139°50'1211.9
2014-Jul-19 20:33N 35°16' E 139°46'1515.2
2014-Jul-19 19:33N 35°01' E 139°43'1311.9
2014-Jul-19 18:26N 34°53' E 139°56'1517.1
2014-Jul-19 17:33N 34°59' E 140°13'1817.4
2014-Jul-19 16:31N 35°09' E 140°31'1617.1
2014-Jul-19 15:33N 35°22' E 140°43'1818.3
2014-Jul-19 14:33N 35°38' E 140°54'1919.0
2014-Jul-19 13:33N 35°57' E 140°59'  
2014-Jul-16 01:21N 35°49' E 141°01'1719.8
2014-Jul-16 00:31N 35°34' E 140°52'2119.5
2014-Jul-15 23:25N 35°16' E 140°37'2121.2
2014-Jul-15 22:26N 35°01' E 140°19'1821.0
2014-Jul-15 21:33N 34°51' E 140°00'2120.6
2014-Jul-15 20:34N 34°41' E 139°39'6219.4
2014-Jul-15 17:22N 34°29' E 138°25'8 0.3
2014-Jul-14 13:03N 34°32' E 138°34'4816.8
2014-Jul-14 10:13N 34°55' E 139°25'1218.1
2014-Jul-14 09:33N 35°03' E 139°36'1515.4
2014-Jul-14 08:33N 35°16' E 139°46'1212.5
2014-Jul-14 07:33N 35°28' E 139°48'10 9.4
2014-Jul-14 06:29N 35°38' E 139°46'0 0.0
2014-Jul-14 05:32N 35°38' E 139°46'0 0.0
2014-Jul-14 04:29N 35°38' E 139°46'0 0.0
2014-Jul-14 03:32N 35°38' E 139°46'0 0.0
2014-Jul-14 02:29N 35°38' E 139°46'0 0.0
2014-Jul-14 01:29N 35°38' E 139°46'0 0.0
2014-Jul-14 00:29N 35°38' E 139°46'0 0.0
2014-Jul-13 23:32N 35°38' E 139°46'1 0.8
2014-Jul-13 22:33N 35°37' E 139°46'8 7.9
2014-Jul-13 21:33N 35°33' E 139°55'0 0.0
2014-Jul-13 20:34N 35°33' E 139°55'0 0.0
2014-Jul-13 19:29N 35°33' E 139°55'0 0.0
2014-Jul-13 18:33N 35°33' E 139°55'0 0.0
2014-Jul-13 17:31N 35°33' E 139°55'0 0.0
2014-Jul-13 16:33N 35°33' E 139°55'1010.5
2014-Jul-13 15:33N 35°25' E 139°47'1111.3
2014-Jul-13 14:33N 35°14' E 139°47'1817.8
2014-Jul-13 13:34N 34°56' E 139°45'1615.6
2014-Jul-13 12:33N 34°56' E 140°04'6816.6
2014-Jul-13 08:28N 35°47' E 140°59'1718.8
2014-Jul-13 07:34N 36°05' E 141°02'1919.0
2014-Jul-13 06:33N 36°23' E 141°06'1919.1
2014-Jul-13 05:33N 36°42' E 141°10'  
Track history (hours):
 
Tides and Currents Weather Stations Pressure Air Temp Water Temp Dewpoint Dewpoint Depression Visibility Wind Speed Wind Dir Waves Ship Positions

Kamikawa Maru

Last reported at 2014-Jul-22 20:23 UTC. Time now 2014-Jul-23 07:48 UTC.
Position N 36°45' E 141°08'.

Length 162 m; draft 6.8 m.

Type: Cargo ship. MMSI: 431101012.

Date/timePositionNaut miles runAvg speedWind from/ knotsBaromVisibWave heightAir tempDewpointWater temp
2014-Jul-22 20:23N 36°45' E 141°08'1618.9
2014-Jul-22 19:33N 36°29' E 141°05'2019.2
2014-Jul-22 18:30N 36°09' E 141°03'1818.8
2014-Jul-22 17:33N 35°52' E 140°59'1918.6
2014-Jul-22 16:34N 35°34' E 140°51'1919.4
2014-Jul-22 15:34N 35°18' E 140°39'1919.1
2014-Jul-22 14:34N 35°05' E 140°22'2221.7
2014-Jul-22 13:33N 34°54' E 139°59'1515.3
2014-Jul-22 12:34N 35°03' E 139°44'1515.1
2014-Jul-22 11:33N 35°18' E 139°44'1211.8
2014-Jul-22 10:33N 35°29' E 139°50'10 9.4
2014-Jul-22 09:29N 35°38' E 139°46'0 0.0
2014-Jul-22 08:29N 35°38' E 139°46'0 0.0
2014-Jul-22 07:29N 35°38' E 139°46'0 0.1
2014-Jul-22 06:32N 35°38' E 139°46'0 0.0
2014-Jul-22 05:29N 35°38' E 139°46'0 0.0
2014-Jul-22 04:32N 35°38' E 139°46'0 0.0
2014-Jul-22 03:32N 35°38' E 139°46'0 0.0
2014-Jul-22 02:29N 35°38' E 139°46'0 0.0
2014-Jul-22 01:29N 35°38' E 139°46'0 0.0
2014-Jul-22 00:32N 35°38' E 139°46'0 0.1
2014-Jul-21 23:33N 35°38' E 139°46'1110.5
2014-Jul-21 22:33N 35°28' E 139°51'1312.5
2014-Jul-21 21:33N 35°17' E 139°46'1514.6
2014-Jul-21 20:34N 35°03' E 139°42'518.7
2014-Jul-21 20:18N 34°60' E 139°37'1418.5
2014-Jul-21 19:34N 34°51' E 139°23'4519.5
2014-Jul-21 17:14N 34°30' E 138°35'8 0.3
2014-Jul-20 10:04N 34°30' E 138°25'5916.7
2014-Jul-20 06:33N 34°58' E 139°28'1818.1
2014-Jul-20 05:33N 35°10' E 139°45'1313.3
2014-Jul-20 04:33N 35°23' E 139°42'1413.9
2014-Jul-20 03:33N 35°36' E 139°46'2 1.5
2014-Jul-20 02:31N 35°38' E 139°46'0 0.0
2014-Jul-20 01:31N 35°38' E 139°46'0 0.0
2014-Jul-20 00:13N 35°38' E 139°46'0 0.0
2014-Jul-19 23:31N 35°38' E 139°46'0 0.1
2014-Jul-19 22:33N 35°38' E 139°46'1111.2
2014-Jul-19 21:33N 35°27' E 139°50'1211.9
2014-Jul-19 20:33N 35°16' E 139°46'1515.2
2014-Jul-19 19:33N 35°01' E 139°43'1311.9
2014-Jul-19 18:26N 34°53' E 139°56'1517.1
2014-Jul-19 17:33N 34°59' E 140°13'1817.4
2014-Jul-19 16:31N 35°09' E 140°31'1617.1
2014-Jul-19 15:33N 35°22' E 140°43'1818.3
2014-Jul-19 14:33N 35°38' E 140°54'1919.0
2014-Jul-19 13:33N 35°57' E 140°59'  
2014-Jul-16 01:21N 35°49' E 141°01'1719.8
2014-Jul-16 00:31N 35°34' E 140°52'2119.5
2014-Jul-15 23:25N 35°16' E 140°37'2121.2
2014-Jul-15 22:26N 35°01' E 140°19'1821.0
2014-Jul-15 21:33N 34°51' E 140°00'2120.6
2014-Jul-15 20:34N 34°41' E 139°39'6219.4
2014-Jul-15 17:22N 34°29' E 138°25'8 0.3
2014-Jul-14 13:03N 34°32' E 138°34'4816.8
2014-Jul-14 10:13N 34°55' E 139°25'1218.1
2014-Jul-14 09:33N 35°03' E 139°36'1515.4
2014-Jul-14 08:33N 35°16' E 139°46'1212.5
2014-Jul-14 07:33N 35°28' E 139°48'10 9.4
2014-Jul-14 06:29N 35°38' E 139°46'0 0.0
2014-Jul-14 05:32N 35°38' E 139°46'0 0.0
2014-Jul-14 04:29N 35°38' E 139°46'0 0.0
2014-Jul-14 03:32N 35°38' E 139°46'0 0.0
2014-Jul-14 02:29N 35°38' E 139°46'0 0.0
2014-Jul-14 01:29N 35°38' E 139°46'0 0.0
2014-Jul-14 00:29N 35°38' E 139°46'0 0.0
2014-Jul-13 23:32N 35°38' E 139°46'1 0.8
2014-Jul-13 22:33N 35°37' E 139°46'8 7.9
2014-Jul-13 21:33N 35°33' E 139°55'0 0.0
2014-Jul-13 20:34N 35°33' E 139°55'0 0.0
2014-Jul-13 19:29N 35°33' E 139°55'0 0.0
2014-Jul-13 18:33N 35°33' E 139°55'0 0.0
2014-Jul-13 17:31N 35°33' E 139°55'0 0.0
2014-Jul-13 16:33N 35°33' E 139°55'1010.5
2014-Jul-13 15:33N 35°25' E 139°47'1111.3
2014-Jul-13 14:33N 35°14' E 139°47'1817.8
2014-Jul-13 13:34N 34°56' E 139°45'1615.6
2014-Jul-13 12:33N 34°56' E 140°04'6816.6
2014-Jul-13 08:28N 35°47' E 140°59'1718.8
2014-Jul-13 07:34N 36°05' E 141°02'1919.0
2014-Jul-13 06:33N 36°23' E 141°06'1919.1
2014-Jul-13 05:33N 36°42' E 141°10'  

Dump ship's entire track history